sensor_id;sensor_type;location;lat;lon;timestamp;pressure;altitude;pressure_sealevel;temperature;humidity
17383;BME280;8809;51.892;8.384;2022-10-30T00:02:11;100771.53;;;14.93;100.00
17383;BME280;8809;51.892;8.384;2022-10-30T00:04:38;100769.69;;;14.90;100.00
17383;BME280;8809;51.892;8.384;2022-10-30T00:07:05;100760.03;;;14.88;100.00
17383;BME280;8809;51.892;8.384;2022-10-30T00:09:32;100767.84;;;14.86;100.00
17383;BME280;8809;51.892;8.384;2022-10-30T00:11:59;100771.28;;;14.83;100.00
17383;BME280;8809;51.892;8.384;2022-10-30T00:14:27;100771.25;;;14.82;100.00
17383;BME280;8809;51.892;8.384;2022-10-30T00:16:54;100766.81;;;14.81;100.00
17383;BME280;8809;51.892;8.384;2022-10-30T00:19:21;100765.91;;;14.79;100.00
17383;BME280;8809;51.892;8.384;2022-10-30T00:21:48;100758.88;;;14.78;100.00
17383;BME280;8809;51.892;8.384;2022-10-30T00:24:15;100759.72;;;14.77;100.00
17383;BME280;8809;51.892;8.384;2022-10-30T00:26:42;100756.16;;;14.75;100.00
17383;BME280;8809;51.892;8.384;2022-10-30T00:29:09;100765.75;;;14.73;100.00
17383;BME280;8809;51.892;8.384;2022-10-30T00:31:37;100754.28;;;14.71;100.00
17383;BME280;8809;51.892;8.384;2022-10-30T00:34:04;100766.56;;;14.70;100.00
17383;BME280;8809;51.892;8.384;2022-10-30T00:36:31;100758.59;;;14.67;100.00
17383;BME280;8809;51.892;8.384;2022-10-30T00:38:58;100755.91;;;14.66;100.00
17383;BME280;8809;51.892;8.384;2022-10-30T00:41:25;100772.53;;;14.65;100.00
17383;BME280;8809;51.892;8.384;2022-10-30T00:43:52;100764.59;;;14.63;100.00
17383;BME280;8809;51.892;8.384;2022-10-30T00:46:24;100763.69;;;14.63;100.00
17383;BME280;8809;51.892;8.384;2022-10-30T00:48:55;100761.91;;;14.60;100.00
17383;BME280;8809;51.892;8.384;2022-10-30T00:51:24;100763.63;;;14.60;100.00
17383;BME280;8809;51.892;8.384;2022-10-30T00:53:53;100763.53;;;14.57;100.00
17383;BME280;8809;51.892;8.384;2022-10-30T00:56:22;100756.50;;;14.56;100.00
17383;BME280;8809;51.892;8.384;2022-10-30T00:58:52;100752.94;;;14.54;100.00
17383;BME280;8809;51.892;8.384;2022-10-30T01:01:23;100762.56;;;14.53;100.00
17383;BME280;8809;51.892;8.384;2022-10-30T01:03:56;100765.13;;;14.52;100.00
17383;BME280;8809;51.892;8.384;2022-10-30T01:06:26;100762.50;;;14.50;100.00
17383;BME280;8809;51.892;8.384;2022-10-30T01:08:54;100760.66;;;14.47;100.00
17383;BME280;8809;51.892;8.384;2022-10-30T01:11:21;100761.50;;;14.46;100.00
17383;BME280;8809;51.892;8.384;2022-10-30T01:13:49;100761.47;;;14.45;100.00
17383;BME280;8809;51.892;8.384;2022-10-30T01:16:34;100763.19;;;14.44;100.00
17383;BME280;8809;51.892;8.384;2022-10-30T01:19:16;100763.13;;;14.41;100.00
17383;BME280;8809;51.892;8.384;2022-10-30T01:21:53;100763.06;;;14.40;100.00
17383;BME280;8809;51.892;8.384;2022-10-30T01:24:35;100764.72;;;14.38;100.00
17383;BME280;8809;51.892;8.384;2022-10-30T01:27:14;100768.19;;;14.37;100.00
17383;BME280;8809;51.892;8.384;2022-10-30T01:29:52;100768.16;;;14.35;100.00
17383;BME280;8809;51.892;8.384;2022-10-30T01:32:36;100773.41;;;14.35;100.00
17383;BME280;8809;51.892;8.384;2022-10-30T01:35:10;100775.97;;;14.34;100.00
17383;BME280;8809;51.892;8.384;2022-10-30T01:37:44;100770.66;;;14.32;100.00
17383;BME280;8809;51.892;8.384;2022-10-30T01:40:16;100771.53;;;14.31;100.00
17383;BME280;8809;51.892;8.384;2022-10-30T01:42:47;100769.75;;;14.30;100.00
17383;BME280;8809;51.892;8.384;2022-10-30T01:45:19;100777.59;;;14.29;100.00
17383;BME280;8809;51.892;8.384;2022-10-30T01:50:44;100765.25;;;14.26;100.00
17383;BME280;8809;51.892;8.384;2022-10-30T01:53:23;100768.72;;;14.25;100.00
17383;BME280;8809;51.892;8.384;2022-10-30T01:55:58;100769.56;;;14.24;100.00
17383;BME280;8809;51.892;8.384;2022-10-30T01:58:31;100762.53;;;14.23;100.00
17383;BME280;8809;51.892;8.384;2022-10-30T02:01:01;100754.66;;;14.23;100.00
17383;BME280;8809;51.892;8.384;2022-10-30T02:03:30;100756.38;;;14.23;100.00
17383;BME280;8809;51.892;8.384;2022-10-30T02:05:58;100761.63;;;14.21;100.00
17383;BME280;8809;51.892;8.384;2022-10-30T02:08:26;100757.22;;;14.20;100.00
17383;BME280;8809;51.892;8.384;2022-10-30T02:10:53;100751.03;;;14.18;100.00
17383;BME280;8809;51.892;8.384;2022-10-30T02:13:22;100754.50;;;14.17;100.00
17383;BME280;8809;51.892;8.384;2022-10-30T02:15:49;100756.16;;;14.15;100.00
17383;BME280;8809;51.892;8.384;2022-10-30T02:18:16;100754.38;;;14.14;100.00
17383;BME280;8809;51.892;8.384;2022-10-30T02:20:44;100751.75;;;14.13;100.00
17383;BME280;8809;51.892;8.384;2022-10-30T02:23:11;100756.06;;;14.10;100.00
17383;BME280;8809;51.892;8.384;2022-10-30T02:25:43;100760.41;;;14.10;100.00
17383;BME280;8809;51.892;8.384;2022-10-30T02:28:10;100766.50;;;14.09;100.00
17383;BME280;8809;51.892;8.384;2022-10-30T02:30:38;100754.16;;;14.06;100.00
17383;BME280;8809;51.892;8.384;2022-10-30T02:33:05;100760.25;;;14.05;100.00
17383;BME280;8809;51.892;8.384;2022-10-30T02:35:32;100767.22;;;14.05;100.00
17383;BME280;8809;51.892;8.384;2022-10-30T02:38:01;100760.19;;;14.02;100.00
17383;BME280;8809;51.892;8.384;2022-10-30T02:40:28;100754.88;;;14.01;100.00
17383;BME280;8809;51.892;8.384;2022-10-30T02:42:55;100746.13;;;14.00;100.00
17383;BME280;8809;51.892;8.384;2022-10-30T02:45:22;100746.06;;;13.99;100.00
17383;BME280;8809;51.892;8.384;2022-10-30T02:47:49;100744.28;;;13.98;100.00
17383;BME280;8809;51.892;8.384;2022-10-30T02:50:16;100739.00;;;13.96;100.00
17383;BME280;8809;51.892;8.384;2022-10-30T02:52:43;100740.69;;;13.94;100.00
17383;BME280;8809;51.892;8.384;2022-10-30T02:55:11;100752.91;;;13.94;100.00
17383;BME280;8809;51.892;8.384;2022-10-30T02:57:38;100749.38;;;13.92;100.00
17383;BME280;8809;51.892;8.384;2022-10-30T03:00:08;100759.84;;;13.92;100.00
17383;BME280;8809;51.892;8.384;2022-10-30T03:02:35;100767.69;;;13.90;100.00
17383;BME280;8809;51.892;8.384;2022-10-30T03:05:03;100765.00;;;13.89;100.00
17383;BME280;8809;51.892;8.384;2022-10-30T03:07:30;100771.09;;;13.88;100.00
17383;BME280;8809;51.892;8.384;2022-10-30T03:09:57;100782.41;;;13.87;100.00
17383;BME280;8809;51.892;8.384;2022-10-30T03:12:25;100770.13;;;13.86;100.00
17383;BME280;8809;51.892;8.384;2022-10-30T03:14:52;100769.22;;;13.84;100.00
17383;BME280;8809;51.892;8.384;2022-10-30T03:17:20;100756.97;;;13.83;100.00
17383;BME280;8809;51.892;8.384;2022-10-30T03:19:47;100762.16;;;13.81;100.00
17383;BME280;8809;51.892;8.384;2022-10-30T03:22:15;100757.69;;;13.79;100.00
17383;BME280;8809;51.892;8.384;2022-10-30T03:24:42;100754.13;;;13.77;100.00
17383;BME280;8809;51.892;8.384;2022-10-30T03:27:09;100754.13;;;13.77;100.00
17383;BME280;8809;51.892;8.384;2022-10-30T03:29:37;100752.28;;;13.72;100.00
17383;BME280;8809;51.892;8.384;2022-10-30T03:32:08;100753.09;;;13.71;100.00
17383;BME280;8809;51.892;8.384;2022-10-30T03:34:35;100758.28;;;13.70;100.00
17383;BME280;8809;51.892;8.384;2022-10-30T03:37:02;100766.09;;;13.68;100.00
17383;BME280;8809;51.892;8.384;2022-10-30T03:39:29;100752.09;;;13.68;100.00
17383;BME280;8809;51.892;8.384;2022-10-30T03:41:56;100763.44;;;13.67;100.00
17383;BME280;8809;51.892;8.384;2022-10-30T03:44:23;100768.69;;;13.67;100.00
17383;BME280;8809;51.892;8.384;2022-10-30T03:46:51;100766.91;;;13.66;100.00
17383;BME280;8809;51.892;8.384;2022-10-30T03:49:19;100760.75;;;13.64;100.00
17383;BME280;8809;51.892;8.384;2022-10-30T03:51:45;100769.50;;;13.64;100.00
17383;BME280;8809;51.892;8.384;2022-10-30T03:54:12;100776.47;;;13.64;100.00
17383;BME280;8809;51.892;8.384;2022-10-30T03:56:39;100759.78;;;13.62;100.00
17383;BME280;8809;51.892;8.384;2022-10-30T03:59:06;100768.50;;;13.61;100.00
17383;BME280;8809;51.892;8.384;2022-10-30T04:01:33;100763.19;;;13.59;100.00
17383;BME280;8809;51.892;8.384;2022-10-30T04:04:01;100761.47;;;13.60;100.00
17383;BME280;8809;51.892;8.384;2022-10-30T04:06:28;100766.66;;;13.58;100.00
17383;BME280;8809;51.892;8.384;2022-10-30T04:08:55;100764.94;;;13.59;100.00
17383;BME280;8809;51.892;8.384;2022-10-30T04:11:22;100764.88;;;13.57;100.00
17383;BME280;8809;51.892;8.384;2022-10-30T04:13:49;100758.69;;;13.55;100.00
17383;BME280;8809;51.892;8.384;2022-10-30T04:16:18;100762.19;;;13.54;100.00
17383;BME280;8809;51.892;8.384;2022-10-30T04:18:45;100759.50;;;13.53;100.00
17383;BME280;8809;51.892;8.384;2022-10-30T04:21:14;100762.06;;;13.51;100.00
17383;BME280;8809;51.892;8.384;2022-10-30T04:23:40;100760.28;;;13.50;100.00
17383;BME280;8809;51.892;8.384;2022-10-30T04:26:07;100761.06;;;13.48;100.00
17383;BME280;8809;51.892;8.384;2022-10-30T04:28:34;100768.88;;;13.46;100.00
17383;BME280;8809;51.892;8.384;2022-10-30T04:31:01;100770.59;;;13.44;100.00
17383;BME280;8809;51.892;8.384;2022-10-30T04:33:28;100766.19;;;13.43;100.00
17383;BME280;8809;51.892;8.384;2022-10-30T04:35:55;100762.59;;;13.41;100.00
17383;BME280;8809;51.892;8.384;2022-10-30T04:38:23;100762.50;;;13.38;100.00
17383;BME280;8809;51.892;8.384;2022-10-30T04:40:50;100763.31;;;13.35;100.00
17383;BME280;8809;51.892;8.384;2022-10-30T04:43:17;100773.75;;;13.34;100.00
17383;BME280;8809;51.892;8.384;2022-10-30T04:45:44;100769.22;;;13.30;100.00
17383;BME280;8809;51.892;8.384;2022-10-30T04:48:12;100768.28;;;13.28;100.00
17383;BME280;8809;51.892;8.384;2022-10-30T04:50:40;100773.44;;;13.25;100.00
17383;BME280;8809;51.892;8.384;2022-10-30T04:53:11;100773.38;;;13.23;100.00
17383;BME280;8809;51.892;8.384;2022-10-30T04:55:40;100766.28;;;13.21;100.00
17383;BME280;8809;51.892;8.384;2022-10-30T04:58:07;100765.28;;;13.17;100.00
17383;BME280;8809;51.892;8.384;2022-10-30T05:00:35;100763.47;;;13.15;100.00
17383;BME280;8809;51.892;8.384;2022-10-30T05:03:02;100759.81;;;13.11;100.00
17383;BME280;8809;51.892;8.384;2022-10-30T05:05:30;100760.59;;;13.09;100.00
17383;BME280;8809;51.892;8.384;2022-10-30T05:07:57;100763.13;;;13.06;100.00
17383;BME280;8809;51.892;8.384;2022-10-30T05:10:24;100757.78;;;13.02;100.00
17383;BME280;8809;51.892;8.384;2022-10-30T05:12:53;100759.47;;;13.00;100.00
17383;BME280;8809;51.892;8.384;2022-10-30T05:15:20;100758.50;;;12.98;100.00
17383;BME280;8809;51.892;8.384;2022-10-30T05:17:50;100753.19;;;12.95;100.00
17383;BME280;8809;51.892;8.384;2022-10-30T05:20:18;100760.94;;;12.92;100.00
17383;BME280;8809;51.892;8.384;2022-10-30T05:22:45;100771.34;;;12.91;100.00
17383;BME280;8809;51.892;8.384;2022-10-30T05:25:12;100779.13;;;12.89;100.00
17383;BME280;8809;51.892;8.384;2022-10-30T05:27:40;100771.16;;;12.85;100.00
17383;BME280;8809;51.892;8.384;2022-10-30T05:30:13;100774.53;;;12.82;100.00
17383;BME280;8809;51.892;8.384;2022-10-30T05:32:40;100784.06;;;12.80;100.00
17383;BME280;8809;51.892;8.384;2022-10-30T05:35:07;100774.41;;;12.78;100.00
17383;BME280;8809;51.892;8.384;2022-10-30T05:37:34;100777.78;;;12.75;100.00
17383;BME280;8809;51.892;8.384;2022-10-30T05:40:01;100776.78;;;12.72;100.00
17383;BME280;8809;51.892;8.384;2022-10-30T05:42:28;100779.31;;;12.70;100.00
17383;BME280;8809;51.892;8.384;2022-10-30T05:44:55;100775.72;;;12.67;100.00
17383;BME280;8809;51.892;8.384;2022-10-30T05:47:23;100775.66;;;12.65;100.00
17383;BME280;8809;51.892;8.384;2022-10-30T05:49:50;100778.16;;;12.62;100.00
17383;BME280;8809;51.892;8.384;2022-10-30T05:52:17;100779.84;;;12.60;100.00
17383;BME280;8809;51.892;8.384;2022-10-30T05:54:44;100774.50;;;12.57;100.00
17383;BME280;8809;51.892;8.384;2022-10-30T05:57:12;100776.19;;;12.55;100.00
17383;BME280;8809;51.892;8.384;2022-10-30T05:59:39;100783.91;;;12.52;100.00
17383;BME280;8809;51.892;8.384;2022-10-30T06:02:06;100785.56;;;12.50;100.00
17383;BME280;8809;51.892;8.384;2022-10-30T06:04:34;100779.41;;;12.48;100.00
17383;BME280;8809;51.892;8.384;2022-10-30T06:07:01;100780.19;;;12.45;100.00
17383;BME280;8809;51.892;8.384;2022-10-30T06:09:28;100783.56;;;12.43;100.00
17383;BME280;8809;51.892;8.384;2022-10-30T06:11:55;100786.94;;;12.40;100.00
17383;BME280;8809;51.892;8.384;2022-10-30T06:14:23;100783.41;;;12.38;100.00
17383;BME280;8809;51.892;8.384;2022-10-30T06:16:50;100784.19;;;12.36;100.00
17383;BME280;8809;51.892;8.384;2022-10-30T06:19:16;100784.94;;;12.33;100.00
17383;BME280;8809;51.892;8.384;2022-10-30T06:21:45;100783.09;;;12.31;100.00
17383;BME280;8809;51.892;8.384;2022-10-30T06:24:12;100782.19;;;12.29;100.00
17383;BME280;8809;51.892;8.384;2022-10-30T06:26:40;100793.47;;;12.27;100.00
17383;BME280;8809;51.892;8.384;2022-10-30T06:29:07;100786.41;;;12.25;100.00
17383;BME280;8809;51.892;8.384;2022-10-30T06:31:33;100792.41;;;12.22;100.00
17383;BME280;8809;51.892;8.384;2022-10-30T06:34:00;100786.25;;;12.20;100.00
17383;BME280;8809;51.892;8.384;2022-10-30T06:36:27;100786.19;;;12.19;100.00
17383;BME280;8809;51.892;8.384;2022-10-30T06:38:56;100785.16;;;12.15;100.00
17383;BME280;8809;51.892;8.384;2022-10-30T06:41:23;100783.38;;;12.14;100.00
17383;BME280;8809;51.892;8.384;2022-10-30T06:43:49;100789.38;;;12.12;100.00
17383;BME280;8809;51.892;8.384;2022-10-30T06:46:16;100790.16;;;12.09;100.00
17383;BME280;8809;51.892;8.384;2022-10-30T06:48:43;100788.31;;;12.07;100.00
17383;BME280;8809;51.892;8.384;2022-10-30T06:51:13;100783.03;;;12.05;100.00
17383;BME280;8809;51.892;8.384;2022-10-30T06:53:41;100782.06;;;12.03;100.00
17383;BME280;8809;51.892;8.384;2022-10-30T06:56:09;100777.66;;;12.02;100.00
17383;BME280;8809;51.892;8.384;2022-10-30T06:58:36;100775.03;;;12.01;100.00
17383;BME280;8809;51.892;8.384;2022-10-30T07:01:05;100774.06;;;11.99;100.00
17383;BME280;8809;51.892;8.384;2022-10-30T07:03:32;100774.00;;;11.97;100.00
17383;BME280;8809;51.892;8.384;2022-10-30T07:05:59;100777.44;;;11.96;100.00
17383;BME280;8809;51.892;8.384;2022-10-30T07:08:28;100780.00;;;11.95;100.00
17383;BME280;8809;51.892;8.384;2022-10-30T07:10:55;100776.47;;;11.94;100.00
17383;BME280;8809;51.892;8.384;2022-10-30T07:13:24;100779.09;;;11.94;100.00
17383;BME280;8809;51.892;8.384;2022-10-30T07:15:51;100776.47;;;11.94;100.00
17383;BME280;8809;51.892;8.384;2022-10-30T07:18:18;100777.31;;;11.93;100.00
17383;BME280;8809;51.892;8.384;2022-10-30T07:20:45;100777.31;;;11.93;100.00
17383;BME280;8809;51.892;8.384;2022-10-30T07:23:12;100777.31;;;11.93;100.00
17383;BME280;8809;51.892;8.384;2022-10-30T07:25:39;100788.66;;;11.94;100.00
17383;BME280;8809;51.892;8.384;2022-10-30T07:28:06;100791.28;;;11.94;100.00
17383;BME280;8809;51.892;8.384;2022-10-30T07:30:34;100793.88;;;11.94;100.00
17383;BME280;8809;51.892;8.384;2022-10-30T07:33:03;100805.25;;;11.94;100.00
17383;BME280;8809;51.892;8.384;2022-10-30T07:35:32;100801.81;;;11.95;100.00
17383;BME280;8809;51.892;8.384;2022-10-30T07:38:01;100794.84;;;11.96;100.00
17383;BME280;8809;51.892;8.384;2022-10-30T07:40:29;100791.34;;;11.95;100.00
17383;BME280;8809;51.892;8.384;2022-10-30T07:42:56;100795.81;;;11.98;100.00
17383;BME280;8809;51.892;8.384;2022-10-30T07:45:23;100800.22;;;11.99;100.00
17383;BME280;8809;51.892;8.384;2022-10-30T07:47:52;100802.06;;;12.01;100.00
17383;BME280;8809;51.892;8.384;2022-10-30T07:50:19;100807.38;;;12.04;100.00
17383;BME280;8809;51.892;8.384;2022-10-30T07:52:46;100806.69;;;12.08;100.00
17383;BME280;8809;51.892;8.384;2022-10-30T07:55:13;100806.84;;;12.13;100.00
17383;BME280;8809;51.892;8.384;2022-10-30T07:57:41;100804.41;;;12.17;100.00
17383;BME280;8809;51.892;8.384;2022-10-30T08:00:10;100803.75;;;12.23;100.00
17383;BME280;8809;51.892;8.384;2022-10-30T08:02:40;100810.00;;;12.26;100.00
17383;BME280;8809;51.892;8.384;2022-10-30T08:05:09;100806.72;;;12.32;100.00
17383;BME280;8809;51.892;8.384;2022-10-30T08:07:37;100814.69;;;12.35;100.00
17383;BME280;8809;51.892;8.384;2022-10-30T08:10:04;100809.66;;;12.41;100.00
17383;BME280;8809;51.892;8.384;2022-10-30T08:12:35;100809.03;;;12.47;100.00
17383;BME280;8809;51.892;8.384;2022-10-30T08:15:03;100806.63;;;12.53;100.00
17383;BME280;8809;51.892;8.384;2022-10-30T08:17:30;100807.72;;;12.59;100.00
17383;BME280;8809;51.892;8.384;2022-10-30T08:19:57;100809.69;;;12.65;100.00
17383;BME280;8809;51.892;8.384;2022-10-30T08:22:27;100813.34;;;12.70;100.00
17383;BME280;8809;51.892;8.384;2022-10-30T08:24:56;100818.91;;;12.78;100.00
17383;BME280;8809;51.892;8.384;2022-10-30T08:27:22;100819.16;;;12.85;100.00
17383;BME280;8809;51.892;8.384;2022-10-30T08:29:49;100823.84;;;12.94;100.00
17383;BME280;8809;51.892;8.384;2022-10-30T08:32:16;100823.25;;;13.02;100.00
17383;BME280;8809;51.892;8.384;2022-10-30T08:34:43;100830.56;;;13.11;100.00
17383;BME280;8809;51.892;8.384;2022-10-30T08:37:10;100816.91;;;13.20;100.00
17383;BME280;8809;51.892;8.384;2022-10-30T08:39:38;100823.25;;;13.26;100.00
17383;BME280;8809;51.892;8.384;2022-10-30T08:42:05;100825.25;;;13.33;100.00
17383;BME280;8809;51.892;8.384;2022-10-30T08:44:32;100824.66;;;13.42;100.00
17383;BME280;8809;51.892;8.384;2022-10-30T08:46:59;100818.84;;;13.51;100.00
17383;BME280;8809;51.892;8.384;2022-10-30T08:49:26;100820.94;;;13.61;100.00
17383;BME280;8809;51.892;8.384;2022-10-30T08:51:53;100815.88;;;13.67;100.00
17383;BME280;8809;51.892;8.384;2022-10-30T08:54:20;100824.88;;;13.75;100.00
17383;BME280;8809;51.892;8.384;2022-10-30T08:56:49;100813.84;;;13.85;100.00
17383;BME280;8809;51.892;8.384;2022-10-30T08:59:15;100814.13;;;13.94;100.00
17383;BME280;8809;51.892;8.384;2022-10-30T09:01:43;100811.00;;;14.06;100.00
17383;BME280;8809;51.892;8.384;2022-10-30T09:04:10;100820.09;;;14.17;100.00
17383;BME280;8809;51.892;8.384;2022-10-30T09:06:37;100810.75;;;14.27;100.00
17383;BME280;8809;51.892;8.384;2022-10-30T09:09:04;100812.81;;;14.37;100.00
17383;BME280;8809;51.892;8.384;2022-10-30T09:11:31;100808.81;;;14.48;100.00
17383;BME280;8809;51.892;8.384;2022-10-30T09:13:59;100808.19;;;14.57;100.00
17383;BME280;8809;51.892;8.384;2022-10-30T09:16:26;100807.53;;;14.65;100.00
17383;BME280;8809;51.892;8.384;2022-10-30T09:18:53;100813.06;;;14.74;100.00
17383;BME280;8809;51.892;8.384;2022-10-30T09:21:20;100807.22;;;14.84;100.00
17383;BME280;8809;51.892;8.384;2022-10-30T09:23:47;100800.44;;;14.93;100.00
17383;BME280;8809;51.892;8.384;2022-10-30T09:26:13;100805.13;;;15.04;100.00
17383;BME280;8809;51.892;8.384;2022-10-30T09:28:41;100802.75;;;15.13;100.00
17383;BME280;8809;51.892;8.384;2022-10-30T09:31:09;100804.81;;;15.25;100.00
17383;BME280;8809;51.892;8.384;2022-10-30T09:33:36;100792.75;;;15.33;100.00
17383;BME280;8809;51.892;8.384;2022-10-30T09:36:04;100794.75;;;15.43;100.00
17383;BME280;8809;51.892;8.384;2022-10-30T09:38:31;100798.50;;;15.53;100.00
17383;BME280;8809;51.892;8.384;2022-10-30T09:41:20;100797.91;;;15.63;100.00
17383;BME280;8809;51.892;8.384;2022-10-30T09:44:01;100793.81;;;15.74;100.00
17383;BME280;8809;51.892;8.384;2022-10-30T09:46:42;100788.81;;;15.86;100.00
17383;BME280;8809;51.892;8.384;2022-10-30T09:49:26;100796.09;;;15.98;100.00
17383;BME280;8809;51.892;8.384;2022-10-30T09:52:07;100795.50;;;16.10;100.00
17383;BME280;8809;51.892;8.384;2022-10-30T09:54:49;100785.25;;;16.22;100.00
17383;BME280;8809;51.892;8.384;2022-10-30T09:57:24;100794.22;;;16.31;100.00
17383;BME280;8809;51.892;8.384;2022-10-30T10:00:02;100794.44;;;16.42;100.00
17383;BME280;8809;51.892;8.384;2022-10-30T10:02:34;100793.78;;;16.54;100.00
17383;BME280;8809;51.892;8.384;2022-10-30T10:05:13;100796.75;;;16.67;100.00
17383;BME280;8809;51.892;8.384;2022-10-30T10:07:45;100798.72;;;16.78;100.00
17383;BME280;8809;51.892;8.384;2022-10-30T10:10:19;100798.88;;;16.87;100.00
17383;BME280;8809;51.892;8.384;2022-10-30T10:12:51;100794.69;;;16.96;100.00
17383;BME280;8809;51.892;8.384;2022-10-30T10:15:30;100804.59;;;17.10;100.00
17383;BME280;8809;51.892;8.384;2022-10-30T10:18:01;100801.34;;;17.24;100.00
17383;BME280;8809;51.892;8.384;2022-10-30T10:20:34;100810.41;;;17.38;100.00
17383;BME280;8809;51.892;8.384;2022-10-30T10:23:16;100797.38;;;17.51;100.00
17383;BME280;8809;51.892;8.384;2022-10-30T10:25:49;100813.47;;;17.63;100.00
17383;BME280;8809;51.892;8.384;2022-10-30T10:28:34;100811.03;;;17.75;100.00
17383;BME280;8809;51.892;8.384;2022-10-30T10:31:14;100811.19;;;17.86;100.00
17383;BME280;8809;51.892;8.384;2022-10-30T10:33:57;100806.94;;;17.95;100.00
17383;BME280;8809;51.892;8.384;2022-10-30T10:36:34;100807.09;;;18.04;100.00
17383;BME280;8809;51.892;8.384;2022-10-30T10:39:15;100816.91;;;18.14;100.00
17383;BME280;8809;51.892;8.384;2022-10-30T10:41:55;100803.00;;;18.28;100.00
17383;BME280;8809;51.892;8.384;2022-10-30T10:44:32;100804.88;;;18.38;100.00
17383;BME280;8809;51.892;8.384;2022-10-30T10:47:22;100802.38;;;18.47;100.00
17383;BME280;8809;51.892;8.384;2022-10-30T10:50:05;100800.72;;;18.53;100.00
17383;BME280;8809;51.892;8.384;2022-10-30T10:52:40;100789.41;;;18.64;100.00
17383;BME280;8809;51.892;8.384;2022-10-30T10:55:14;100780.72;;;18.74;100.00
17383;BME280;8809;51.892;8.384;2022-10-30T10:57:42;100777.28;;;18.84;100.00
17383;BME280;8809;51.892;8.384;2022-10-30T11:00:15;100773.88;;;18.91;100.00
17383;BME280;8809;51.892;8.384;2022-10-30T11:02:48;100775.69;;;18.98;100.00
17383;BME280;8809;51.892;8.384;2022-10-30T11:05:24;100777.50;;;19.05;100.00
17383;BME280;8809;51.892;8.384;2022-10-30T11:07:58;100768.78;;;19.11;100.00
17383;BME280;8809;51.892;8.384;2022-10-30T11:10:26;100764.38;;;19.14;100.00
17383;BME280;8809;51.892;8.384;2022-10-30T11:12:53;100758.28;;;19.20;100.00
17383;BME280;8809;51.892;8.384;2022-10-30T11:15:30;100748.59;;;19.25;100.00
17383;BME280;8809;51.892;8.384;2022-10-30T11:18:01;100747.78;;;19.32;100.00
17383;BME280;8809;51.892;8.384;2022-10-30T11:20:35;100744.34;;;19.39;100.00
17383;BME280;8809;51.892;8.384;2022-10-30T11:23:03;100737.31;;;19.46;100.00
17383;BME280;8809;51.892;8.384;2022-10-30T11:25:50;100740.94;;;19.52;100.00
17383;BME280;8809;51.892;8.384;2022-10-30T11:28:30;100741.00;;;19.60;100.00
17383;BME280;8809;51.892;8.384;2022-10-30T11:31:18;100738.41;;;19.71;100.00
17383;BME280;8809;51.892;8.384;2022-10-30T11:33:46;100739.34;;;19.80;100.00
17383;BME280;8809;51.892;8.384;2022-10-30T11:36:16;100740.28;;;19.85;100.00
17383;BME280;8809;51.892;8.384;2022-10-30T11:38:44;100735.00;;;19.88;100.00
17383;BME280;8809;51.892;8.384;2022-10-30T11:41:12;100733.28;;;19.95;100.00
17383;BME280;8809;51.892;8.384;2022-10-30T11:43:40;100740.34;;;20.00;100.00
17383;BME280;8809;51.892;8.384;2022-10-30T11:46:11;100738.63;;;20.06;100.00
17383;BME280;8809;51.892;8.384;2022-10-30T11:48:43;100736.91;;;20.14;100.00
17383;BME280;8809;51.892;8.384;2022-10-30T11:51:11;100742.22;;;20.21;100.00
17383;BME280;8809;51.892;8.384;2022-10-30T11:53:47;100736.97;;;20.27;99.42
17383;BME280;8809;51.892;8.384;2022-10-30T11:56:16;100735.22;;;20.32;98.09
17383;BME280;8809;51.892;8.384;2022-10-30T11:58:47;100738.81;;;20.38;96.75
17383;BME280;8809;51.892;8.384;2022-10-30T12:01:20;100733.53;;;20.42;97.60
17383;BME280;8809;51.892;8.384;2022-10-30T12:03:48;100731.78;;;20.47;99.19
17383;BME280;8809;51.892;8.384;2022-10-30T12:06:17;100730.91;;;20.53;99.74
17383;BME280;8809;51.892;8.384;2022-10-30T12:09:00;100733.56;;;20.59;100.00
17383;BME280;8809;51.892;8.384;2022-10-30T12:11:29;100726.53;;;20.64;100.00
17383;BME280;8809;51.892;8.384;2022-10-30T12:13:57;100723.00;;;20.68;100.00
17383;BME280;8809;51.892;8.384;2022-10-30T12:16:25;100723.91;;;20.73;100.00
17383;BME280;8809;51.892;8.384;2022-10-30T12:18:58;100719.47;;;20.77;100.00
17383;BME280;8809;51.892;8.384;2022-10-30T12:21:28;100718.59;;;20.79;100.00
17383;BME280;8809;51.892;8.384;2022-10-30T12:24:00;100719.50;;;20.81;100.00
17383;BME280;8809;51.892;8.384;2022-10-30T12:26:32;100722.13;;;20.86;98.61
17383;BME280;8809;51.892;8.384;2022-10-30T12:29:02;100725.72;;;20.92;97.54
17383;BME280;8809;51.892;8.384;2022-10-30T12:31:36;100723.03;;;20.95;94.08
17383;BME280;8809;51.892;8.384;2022-10-30T12:34:35;100724.84;;;21.01;95.64
17383;BME280;8809;51.892;8.384;2022-10-30T12:37:10;100717.75;;;21.03;95.79
17383;BME280;8809;51.892;8.384;2022-10-30T12:39:50;100729.25;;;21.06;97.13
17383;BME280;8809;51.892;8.384;2022-10-30T12:42:19;100726.59;;;21.06;97.05
17383;BME280;8809;51.892;8.384;2022-10-30T12:44:51;100721.28;;;21.09;96.30
17383;BME280;8809;51.892;8.384;2022-10-30T12:47:26;100725.72;;;21.10;97.12
17383;BME280;8809;51.892;8.384;2022-10-30T12:49:57;100719.53;;;21.10;97.62
17383;BME280;8809;51.892;8.384;2022-10-30T12:52:32;100716.88;;;21.08;98.25
17383;BME280;8809;51.892;8.384;2022-10-30T12:55:07;100720.41;;;21.07;98.03
17383;BME280;8809;51.892;8.384;2022-10-30T12:57:45;100719.50;;;21.05;98.94
17383;BME280;8809;51.892;8.384;2022-10-30T13:00:18;100712.44;;;21.06;100.00
17383;BME280;8809;51.892;8.384;2022-10-30T13:02:51;100715.97;;;21.08;99.38
17383;BME280;8809;51.892;8.384;2022-10-30T13:05:26;100708.03;;;21.08;100.00
17383;BME280;8809;51.892;8.384;2022-10-30T13:08:01;100710.69;;;21.11;99.33